Time;durP1;ratioP1;P1;durP2;ratioP2;P2;SDS_P1;SDS_P2;PMS_P1;PMS_P2;Temp;Humidity;BMP_temperature;BMP_pressure;BME280_temperature;BME280_humidity;BME280_pressure;Samples;Min_cycle;Max_cycle;Signal;HPM_P1;HPM_P2
2022/02/03 00:00:44;;;;;;;17.10;9.77;;;154.20;2252.80;;;;;;4952318;29;20031;-60
2022/02/03 00:06:09;;;;;;;7.40;3.58;;;154.20;2252.80;;;;;;4952242;29;20031;-60
2022/02/03 00:22:08;;;;;;;10.57;5.57;;;154.20;2252.80;;;;;;4958547;28;20099;-60
2022/02/03 00:24:53;;;;;;;8.50;5.22;;;154.20;2252.80;;;;;;4958318;29;20022;-61
2022/02/03 00:30:12;;;;;;;10.38;5.57;;;154.20;2252.80;;;;;;4958213;29;20438;-61
2022/02/03 00:48:43;;;;;;;11.02;4.78;;;154.20;2252.80;;;;;;4958104;29;20118;-59
2022/02/03 00:51:10;;;;;;;14.63;7.45;;;154.30;2252.80;;;;;;4957771;28;20024;-60
2022/02/03 00:53:37;;;;;;;11.65;3.47;;;154.10;2252.80;;;;;;4958142;29;20031;-61
2022/02/03 00:56:08;;;;;;;20.27;10.48;;;154.20;2252.80;;;;;;4957349;29;20379;-61
2022/02/03 00:58:41;;;;;;;7.13;4.40;;;154.20;2252.80;;;;;;4957712;29;20034;-56
2022/02/03 01:01:11;;;;;;;8.75;6.55;;;154.20;2252.80;;;;;;4957959;28;20454;-59
2022/02/03 01:03:37;;;;;;;6.55;3.75;;;154.30;2252.80;;;;;;4958083;28;20583;-59
2022/02/03 01:06:04;;;;;;;20.45;12.02;;;154.20;2252.80;;;;;;4957912;28;20031;-56
2022/02/03 01:08:34;;;;;;;46.55;22.38;;;154.20;2252.80;;;;;;4957649;28;20027;-60
2022/02/03 01:11:11;;;;;;;5.97;3.53;;;154.20;2252.80;;;;;;4957603;29;20042;-61
2022/02/03 01:44:04;;;;;;;7.70;3.03;;;153.90;2252.80;;;;;;4840264;29;20536;-61
2022/02/03 01:47:23;;;;;;;12.45;5.55;;;154.00;2252.80;;;;;;4839460;29;20042;-59
2022/02/03 01:52:40;;;;;;;6.82;2.45;;;154.00;2252.80;;;;;;4785154;30;20035;-60
2022/02/03 01:55:12;;;;;;;7.82;3.72;;;153.90;2252.80;;;;;;4809823;29;20050;-62
2022/02/03 01:58:01;;;;;;;10.02;4.97;;;153.90;2252.80;;;;;;4823899;29;20485;-59
2022/02/03 02:00:31;;;;;;;4.82;2.53;;;154.00;2252.80;;;;;;4876589;29;20037;-61
2022/02/03 02:03:09;;;;;;;10.55;4.75;;;153.90;2252.80;;;;;;4876195;29;20040;-61
2022/02/03 02:05:56;;;;;;;8.13;2.72;;;153.90;2252.80;;;;;;4876223;29;20036;-61
2022/02/03 02:08:37;;;;;;;9.25;4.72;;;153.80;2252.80;;;;;;4876163;29;20095;-61
2022/02/03 02:11:33;;;;;;;5.72;2.53;;;153.90;2252.80;;;;;;4876427;29;20057;-58
2022/02/03 02:39:50;;;;;;;6.30;2.65;;;153.80;2252.80;;;;;;4953347;29;20036;-59
2022/02/03 02:42:32;;;;;;;7.97;3.40;;;153.70;2252.80;;;;;;4953169;28;20055;-57
2022/02/03 02:45:10;;;;;;;5.55;3.90;;;153.80;2252.80;;;;;;4953452;29;20031;-60
2022/02/03 02:47:51;;;;;;;7.85;2.58;;;153.70;2252.80;;;;;;4953420;29;20062;-59
2022/02/03 02:50:50;;;;;;;11.80;4.43;;;153.80;2252.80;;;;;;4953318;29;20420;-62
2022/02/03 03:34:37;;;;;;;7.90;2.53;;;153.70;2252.80;;;;;;4952201;28;20046;-61
2022/02/03 03:37:01;;;;;;;8.55;3.30;;;153.80;2252.80;;;;;;4952110;29;20051;-61
2022/02/03 03:39:32;;;;;;;5.88;2.70;;;153.80;2252.80;;;;;;4952110;29;20058;-62
2022/02/03 03:42:00;;;;;;;12.77;5.10;;;153.70;2252.80;;;;;;4952422;29;20466;-55
2022/02/03 03:44:29;;;;;;;9.40;4.53;;;153.60;2252.80;;;;;;4952465;29;20027;-61
2022/02/03 03:47:01;;;;;;;9.68;4.57;;;153.70;2252.80;;;;;;4952296;29;20035;-61
2022/02/03 03:49:37;;;;;;;14.15;5.95;;;153.60;2252.80;;;;;;4952413;29;20035;-61
2022/02/03 03:52:07;;;;;;;10.57;3.63;;;128.90;2252.80;;;;;;4952412;29;20043;-56
2022/02/03 03:57:20;;;;;;;15.32;7.70;;;153.60;2252.80;;;;;;4951713;29;20046;-56
2022/02/03 04:50:45;;;;;;;12.52;4.93;;;128.80;2252.80;;;;;;4951748;29;20042;-59
2022/02/03 05:04:49;;;;;;;11.38;5.20;;;128.70;2252.80;;;;;;4873437;29;20892;-59
2022/02/03 05:11:09;;;;;;;4.28;2.60;;;128.70;2252.80;;;;;;4877209;29;20033;-59
2022/02/03 05:14:39;;;;;;;6.68;3.30;;;128.70;2252.80;;;;;;4874737;29;20048;-61
2022/02/03 05:35:29;;;;;;;6.32;2.50;;;128.50;2252.80;;;;;;4821306;29;20164;-56
2022/02/03 06:22:26;;;;;;;9.27;2.80;;;128.40;2252.80;;;;;;4913740;29;20047;-56
2022/02/03 06:29:55;;;;;;;7.80;2.80;;;128.50;2252.80;;;;;;4913377;29;20033;-62
2022/02/03 06:32:21;;;;;;;4.78;3.03;;;128.50;2252.80;;;;;;4913220;29;20028;-59
2022/02/03 06:34:47;;;;;;;22.52;9.65;;;128.50;2252.80;;;;;;4913060;29;20052;-59
2022/02/03 06:37:13;;;;;;;9.63;4.63;;;128.30;2252.80;;;;;;4913437;29;20586;-61
2022/02/03 06:39:39;;;;;;;22.85;10.82;;;128.50;2252.80;;;;;;4913054;29;20032;-58
2022/02/03 06:42:06;;;;;;;9.35;4.35;;;128.60;2252.80;;;;;;4932136;29;20040;-62
2022/02/03 06:44:38;;;;;;;27.45;11.40;;;128.60;2252.80;;;;;;4931847;29;20028;-58
2022/02/03 06:52:43;;;;;;;22.77;16.75;;;128.70;2252.80;;;;;;4972735;28;20414;-61
2022/02/03 06:57:41;;;;;;;38.03;21.90;;;128.80;2252.80;;;;;;4972566;28;20019;-58
2022/02/03 07:00:16;;;;;;;53.40;29.80;;;128.90;2252.80;;;;;;4972524;28;20560;-58
2022/02/03 07:02:44;;;;;;;17.70;11.30;;;128.90;2252.80;;;;;;4972021;28;20300;-59
2022/02/03 07:05:11;;;;;;;8.02;3.85;;;128.80;2252.80;;;;;;4972114;28;20046;-60
2022/02/03 07:07:39;;;;;;;7.65;4.47;;;128.80;2252.80;;;;;;4972464;28;20102;-56
2022/02/03 07:10:07;;;;;;;13.45;6.57;;;128.90;2252.80;;;;;;4972376;28;20027;-57
2022/02/03 07:12:33;;;;;;;22.70;11.60;;;128.80;2252.80;;;;;;4972064;28;20034;-53
2022/02/03 07:15:00;;;;;;;80.97;38.15;;;153.60;2252.80;;;;;;4971975;28;20389;-55
2022/02/03 07:17:26;;;;;;;15.13;8.50;;;153.70;2252.80;;;;;;4972368;28;20440;-57
2022/02/03 07:19:55;;;;;;;8.52;4.68;;;153.60;2252.80;;;;;;4972097;28;20106;-57
2022/02/03 07:22:20;;;;;;;10.20;4.85;;;128.90;2252.80;;;;;;4971857;28;20181;-56
2022/02/03 07:24:51;;;;;;;18.55;9.20;;;153.70;2252.80;;;;;;4972108;28;20505;-56
2022/02/03 07:27:17;;;;;;;16.48;8.80;;;153.60;2252.80;;;;;;4972034;28;20026;-57
2022/02/03 07:29:42;;;;;;;7.25;4.50;;;153.70;2252.80;;;;;;4971105;28;20077;-57
2022/02/03 07:32:09;;;;;;;49.80;26.60;;;153.60;2252.80;;;;;;4972052;28;20035;-55
2022/02/03 07:34:35;;;;;;;117.65;76.55;;;153.70;2252.80;;;;;;4954265;28;20613;-57
2022/02/03 07:37:01;;;;;;;14.30;7.70;;;153.60;2252.80;;;;;;4971590;28;20117;-57
2022/02/03 07:39:27;;;;;;;33.42;19.17;;;153.60;2252.80;;;;;;4971596;28;20474;-57
2022/02/03 07:41:52;;;;;;;8.85;4.80;;;153.60;2252.80;;;;;;4971659;28;20031;-57
2022/02/03 07:44:18;;;;;;;11.80;8.40;;;153.60;2252.80;;;;;;4971513;28;20177;-55
2022/02/03 07:46:44;;;;;;;40.05;26.35;;;153.70;2252.80;;;;;;4971753;28;20049;-57
2022/02/03 07:49:10;;;;;;;6.30;4.25;;;153.80;2252.80;;;;;;4971664;28;20038;-56
2022/02/03 07:51:35;;;;;;;10.55;6.60;;;153.70;2252.80;;;;;;4971692;28;20062;-57
2022/02/03 07:54:01;;;;;;;11.52;6.85;;;153.70;2252.80;;;;;;4971496;28;20150;-57
2022/02/03 07:56:27;;;;;;;10.75;4.47;;;153.70;2252.80;;;;;;4971436;28;20049;-54
2022/02/03 07:58:53;;;;;;;79.38;50.35;;;153.60;2252.80;;;;;;4971449;28;20027;-54
2022/02/03 08:01:20;;;;;;;19.60;13.60;;;153.70;2252.80;;;;;;4971419;28;20448;-56
2022/02/03 08:03:46;;;;;;;10.77;5.43;;;153.90;2252.80;;;;;;4971140;28;20449;-56
2022/02/03 08:06:22;;;;;;;8.13;4.00;;;153.80;2252.80;;;;;;4971443;28;20110;-58
2022/02/03 08:08:52;;;;;;;8.23;3.15;;;154.00;2252.80;;;;;;4971384;28;20043;-57
2022/02/03 08:11:25;;;;;;;9.20;3.65;;;153.90;2252.80;;;;;;4971284;28;20019;-59
2022/02/03 08:16:43;;;;;;;8.10;4.20;;;154.00;2252.80;;;;;;4971355;28;20619;-59
2022/02/03 08:19:30;;;;;;;5.55;3.25;;;154.00;2252.80;;;;;;4971070;28;20027;-57
2022/02/03 08:22:34;;;;;;;9.90;3.45;;;154.00;2252.80;;;;;;4971166;28;20035;-57
2022/02/03 08:27:39;;;;;;;8.48;2.65;;;179.20;2252.80;;;;;;4969489;28;20109;-57
2022/02/03 08:32:34;;;;;;;8.02;3.60;;;154.20;2252.80;;;;;;4969706;28;20027;-59
2022/02/03 08:37:47;;;;;;;8.13;4.55;;;154.30;2252.80;;;;;;4969398;28;20041;-59
2022/02/03 08:40:29;;;;;;;8.27;4.80;;;154.30;2252.80;;;;;;4971152;28;20585;-59
2022/02/03 08:42:55;;;;;;;6.90;4.13;;;154.40;2252.80;;;;;;4973195;28;20023;-59
2022/02/03 08:45:21;;;;;;;9.13;4.70;;;154.50;2252.80;;;;;;4973298;28;20039;-57
2022/02/03 08:47:48;;;;;;;7.13;4.55;;;154.50;2252.80;;;;;;4973600;28;20031;-54
2022/02/03 08:50:14;;;;;;;13.88;5.72;;;154.40;2252.80;;;;;;4956056;28;20037;-55
2022/02/03 08:52:55;;;;;;;11.57;4.70;;;154.50;2252.80;;;;;;4972956;28;20058;-57
2022/02/03 10:00:32;;;;;;;152.02;92.97;;;230.40;1792.00;;;;;;4973851;28;20030;-58
2022/02/03 10:03:00;;;;;;;44.17;24.73;;;230.40;1792.00;;;;;;4973545;28;20044;-57
2022/02/03 10:05:39;;;;;;;88.13;56.97;;;230.60;1792.00;;;;;;4973462;28;20366;-55
2022/02/03 10:08:10;;;;;;;54.40;34.75;;;230.90;1740.80;;;;;;4973461;28;20771;-59
2022/02/03 10:10:36;;;;;;;93.28;65.22;;;230.70;1740.80;;;;;;4973047;28;20037;-57
2022/02/03 10:13:17;;;;;;;37.25;25.17;;;230.50;1740.80;;;;;;4973280;28;20027;-58
2022/02/03 10:15:43;;;;;;;18.17;9.48;;;230.40;1740.80;;;;;;4973048;28;20043;-58
2022/02/03 10:18:28;;;;;;;27.88;17.70;;;205.60;1740.80;;;;;;4973261;28;20030;-57
2022/02/03 10:20:56;;;;;;;15.07;7.97;;;205.60;1740.80;;;;;;4973351;28;20165;-58
2022/02/03 10:23:24;;;;;;;21.92;13.20;;;205.70;1766.40;;;;;;4972955;28;20470;-55
2022/02/03 10:25:55;;;;;;;34.83;21.27;;;230.50;1766.40;;;;;;4973215;28;20042;-57
2022/02/03 10:28:21;;;;;;;42.75;28.63;;;230.90;1740.80;;;;;;4973181;28;20026;-56
2022/02/03 10:33:13;;;;;;;25.42;18.55;;;231.20;1689.60;;;;;;4973245;28;20030;-56
2022/02/03 10:38:41;;;;;;;8.75;4.25;;;256.40;1638.40;;;;;;4972772;28;20034;-58
2022/02/03 10:52:35;;;;;;;14.20;9.88;;;230.70;1689.60;;;;;;4913217;29;20094;-57
2022/02/03 10:55:29;;;;;;;24.88;15.55;;;230.60;1689.60;;;;;;4912588;29;20059;-58
2022/02/03 11:08:19;;;;;;;11.68;4.00;;;256.00;1638.40;;;;;;4912863;29;20043;-58
2022/02/03 11:10:51;;;;;;;6.83;3.80;;;231.20;1638.40;;;;;;4913153;29;20035;-56
2022/02/03 11:13:19;;;;;;;18.13;9.60;;;231.10;1664.00;;;;;;4912812;29;20291;-57
2022/02/03 11:15:48;;;;;;;14.80;8.57;;;231.10;1664.00;;;;;;4912904;29;20151;-57
2022/02/03 11:18:16;;;;;;;15.90;8.18;;;231.10;1664.00;;;;;;4912708;29;20471;-56
2022/02/03 11:20:44;;;;;;;28.05;9.40;;;230.90;1664.00;;;;;;4948944;28;20093;-58
2022/02/03 11:23:31;;;;;;;10.65;4.93;;;230.70;1689.60;;;;;;4971911;28;20109;-57
2022/02/03 11:40:37;;;;;;;8.45;4.72;;;230.90;1612.80;;;;;;4971816;28;20489;-59
2022/02/03 11:49:18;;;;;;;11.10;6.50;;;230.80;1664.00;;;;;;4972029;28;20115;-60
2022/02/03 11:52:08;;;;;;;12.00;6.60;;;231.10;1638.40;;;;;;4971749;28;20066;-59
2022/02/03 11:57:29;;;;;;;13.30;7.75;;;231.10;1638.40;;;;;;4971515;28;20022;-57
2022/02/03 12:17:17;;;;;;;18.80;9.15;;;230.80;1689.60;;;;;;4893013;29;20088;-57
2022/02/03 12:20:10;;;;;;;10.25;5.40;;;231.00;1689.60;;;;;;4892467;29;20408;-56
2022/02/03 12:22:43;;;;;;;21.90;9.73;;;231.00;1689.60;;;;;;4892894;29;20540;-56
2022/02/03 12:25:32;;;;;;;28.95;16.02;;;231.00;1689.60;;;;;;4892690;29;20067;-58
2022/02/03 12:31:07;;;;;;;16.83;9.00;;;231.00;1612.80;;;;;;4892948;29;20623;-59
2022/02/03 12:38:50;;;;;;;8.30;4.05;;;230.80;1664.00;;;;;;4892862;29;20032;-57
2022/02/03 12:41:40;;;;;;;6.88;4.78;;;230.60;1638.40;;;;;;4893083;29;20037;-59
2022/02/03 12:44:11;;;;;;;6.68;3.25;;;230.60;1612.80;;;;;;4892610;29;20043;-56
2022/02/03 12:46:37;;;;;;;9.52;5.43;;;230.60;1638.40;;;;;;4892825;29;20521;-58
2022/02/03 12:49:03;;;;;;;9.68;6.30;;;230.60;1638.40;;;;;;4892688;29;20036;-56
2022/02/03 12:51:29;;;;;;;6.22;3.10;;;230.60;1638.40;;;;;;4899099;28;20033;-57
2022/02/03 12:53:55;;;;;;;4.70;2.72;;;230.50;1664.00;;;;;;4969833;28;20026;-55
2022/02/03 12:56:25;;;;;;;7.32;4.55;;;230.50;1638.40;;;;;;4969027;28;20063;-57
2022/02/03 12:59:01;;;;;;;12.18;7.13;;;230.40;1638.40;;;;;;4951288;28;20026;-56
2022/02/03 13:01:36;;;;;;;6.03;3.10;;;230.50;1638.40;;;;;;4969729;28;20429;-56
2022/02/03 13:04:15;;;;;;;15.15;8.23;;;230.40;1638.40;;;;;;4969138;28;20392;-57
2022/02/03 13:06:54;;;;;;;22.27;12.05;;;230.60;1638.40;;;;;;4969348;28;20038;-58
2022/02/03 13:09:35;;;;;;;17.25;10.27;;;230.70;1638.40;;;;;;4969153;28;20035;-58
2022/02/03 13:12:18;;;;;;;31.33;20.25;;;230.80;1638.40;;;;;;4969127;28;20056;-58
2022/02/03 13:14:52;;;;;;;;;;;230.90;1638.40;;;;;;4969398;28;20038;-57
2022/02/03 13:17:22;;;;;;;20.10;12.32;;;230.90;1612.80;;;;;;4969454;28;19915;-57
2022/02/03 13:27:22;;;;;;;;;;;230.60;1664.00;;;;;;4971268;28;20081;-62
2022/02/03 13:29:58;;;;;;;20.73;10.70;;;230.50;1638.40;;;;;;4972961;28;19910;-57
2022/02/03 13:32:36;;;;;;;20.20;10.65;;;230.60;1664.00;;;;;;4972728;28;20527;-57
2022/02/03 13:35:20;;;;;;;34.72;23.70;;;230.60;1664.00;;;;;;4962869;28;20478;-56
2022/02/03 13:37:49;;;;;;;;;;;230.60;1664.00;;;;;;4953446;29;20082;-57
2022/02/03 13:40:17;;;;;;;22.75;14.30;;;230.60;1689.60;;;;;;4952988;29;19958;-56
2022/02/03 13:42:47;;;;;;;32.55;19.58;;;230.60;1689.60;;;;;;4952979;29;20035;-58
2022/02/03 13:45:14;;;;;;;14.02;10.57;;;230.50;1689.60;;;;;;4952907;29;20533;-56
2022/02/03 13:47:41;;;;;;;15.13;10.10;;;230.40;1689.60;;;;;;4952684;29;20062;-57
2022/02/03 13:50:20;;;;;;;15.10;8.98;;;230.40;1689.60;;;;;;4952985;29;20581;-58
2022/02/03 14:28:53;;;;;;;10.98;6.05;;;205.60;1740.80;;;;;;4930686;29;20070;-56
2022/02/03 14:31:18;;;;;;;18.63;9.40;;;205.50;1740.80;;;;;;4930479;29;20113;-56
2022/02/03 14:33:44;;;;;;;20.70;9.70;;;205.50;1740.80;;;;;;4930559;29;20098;-58
2022/02/03 14:36:14;;;;;;;19.40;8.90;;;205.50;1740.80;;;;;;4930201;29;20107;-56
2022/02/03 14:39:03;;;;;;;20.45;12.93;;;205.40;1766.40;;;;;;4929816;29;20036;-56
2022/02/03 14:41:35;;;;;;;12.32;8.18;;;205.40;1792.00;;;;;;4930158;29;20032;-57
2022/02/03 14:44:02;;;;;;;8.30;5.38;;;205.40;1792.00;;;;;;4930312;29;20034;-59
2022/02/03 14:46:28;;;;;;;12.32;6.03;;;205.30;1792.00;;;;;;4930179;29;20039;-59
2022/02/03 14:48:55;;;;;;;8.35;4.47;;;205.30;1792.00;;;;;;4938264;29;20587;-60
2022/02/03 14:51:26;;;;;;;8.77;5.57;;;205.40;1792.00;;;;;;4951414;29;20059;-59
2022/02/03 14:58:03;;;;;;;10.23;5.72;;;205.40;1792.00;;;;;;4951667;29;20027;-60
2022/02/03 14:59:28;;;;;;;12.90;5.28;;;205.20;1817.60;;;;;;4951770;29;20027;-56
2022/02/03 15:01:54;;;;;;;8.73;6.68;;;205.20;1817.60;;;;;;4951097;29;20036;-55
2022/02/03 15:04:27;;;;;;;28.63;22.65;;;205.10;1817.60;;;;;;4951278;29;20046;-55
2022/02/03 15:06:57;;;;;;;8.32;5.22;;;205.20;1817.60;;;;;;4951168;29;20057;-56
2022/02/03 15:10:14;;;;;;;16.80;15.15;;;205.20;1843.20;;;;;;4951256;29;20031;-58
2022/02/03 15:12:37;;;;;;;15.10;6.93;;;205.20;1868.80;;;;;;4949407;29;20046;-58
2022/02/03 15:15:05;;;;;;;13.05;8.50;;;205.10;1868.80;;;;;;4951198;29;20046;-59
2022/02/03 15:17:35;;;;;;;11.00;6.40;;;205.10;1868.80;;;;;;4951019;29;20027;-60
2022/02/03 15:20:01;;;;;;;13.35;8.95;;;205.20;1843.20;;;;;;4951238;29;20431;-60
2022/02/03 15:22:27;;;;;;;24.83;12.30;;;205.10;1843.20;;;;;;4950786;29;20505;-60
2022/02/03 15:24:53;;;;;;;13.90;8.13;;;205.10;1843.20;;;;;;4951172;29;20023;-60
2022/02/03 15:27:18;;;;;;;13.93;7.38;;;205.10;1868.80;;;;;;4950955;29;20034;-59
2022/02/03 15:29:48;;;;;;;40.60;22.30;;;205.10;1868.80;;;;;;4951426;29;20031;-61
2022/02/03 15:32:14;;;;;;;21.05;12.10;;;205.00;1868.80;;;;;;4950516;29;20633;-59
2022/02/03 15:34:40;;;;;;;21.60;9.98;;;205.00;1868.80;;;;;;4950348;29;20134;-59
2022/02/03 15:37:14;;;;;;;27.77;11.50;;;204.90;1868.80;;;;;;4951082;29;20122;-60
2022/02/03 15:39:48;;;;;;;13.98;8.82;;;204.90;1868.80;;;;;;4950705;29;20068;-57
2022/02/03 15:42:23;;;;;;;21.20;11.10;;;204.90;1894.40;;;;;;4950474;29;20059;-56
2022/02/03 15:44:52;;;;;;;52.83;33.22;;;204.80;1920.00;;;;;;4950236;29;20634;-56
2022/02/03 15:47:27;;;;;;;48.60;28.23;;;180.10;1894.40;;;;;;4950912;29;20031;-56
2022/02/03 16:03:22;;;;;;;23.45;12.20;;;179.80;1945.60;;;;;;4950449;29;20405;-57
2022/02/03 16:17:01;;;;;;;15.27;9.25;;;179.80;1945.60;;;;;;4950736;29;20500;-60
2022/02/03 16:19:36;;;;;;;21.15;12.20;;;179.70;1971.20;;;;;;4950409;29;20056;-57
2022/02/03 16:22:09;;;;;;;25.48;14.15;;;179.70;1971.20;;;;;;4950204;29;20457;-59
2022/02/03 16:24:52;;;;;;;42.70;25.73;;;179.70;1996.80;;;;;;4950094;29;20039;-55
2022/02/03 16:51:31;;;;;;;12.38;8.27;;;179.40;2099.20;;;;;;4950181;29;20082;-57
2022/02/03 16:54:01;;;;;;;19.35;9.30;;;179.30;2099.20;;;;;;4949884;29;20038;-56
2022/02/03 16:56:28;;;;;;;17.10;8.73;;;179.30;2099.20;;;;;;4949772;29;20039;-57
2022/02/03 16:58:54;;;;;;;94.07;53.55;;;179.20;2099.20;;;;;;4948750;29;20036;-56
2022/02/03 17:01:20;;;;;;;25.88;14.70;;;179.20;2099.20;;;;;;4951784;28;20042;-57
2022/02/03 17:03:46;;;;;;;31.50;20.65;;;154.50;2099.20;;;;;;4953333;29;20039;-57
2022/02/03 17:06:13;;;;;;;21.88;13.02;;;154.50;2150.40;;;;;;4952653;29;20039;-57
2022/02/03 17:08:39;;;;;;;19.25;10.38;;;154.30;2150.40;;;;;;4953592;29;20035;-57
2022/02/03 17:11:05;;;;;;;26.48;15.45;;;154.30;2124.80;;;;;;4953665;29;20034;-57
2022/02/03 17:13:31;;;;;;;25.25;17.92;;;154.20;2176.00;;;;;;4953719;29;20039;-57
2022/02/03 17:15:56;;;;;;;40.45;26.48;;;154.20;2201.60;;;;;;4953423;29;20478;-60
2022/02/03 17:18:22;;;;;;;32.72;21.55;;;154.10;2227.20;;;;;;4953200;29;20394;-59
2022/02/03 17:20:48;;;;;;;33.50;22.50;;;154.20;2201.60;;;;;;4953431;29;20042;-58
2022/02/03 17:23:18;;;;;;;26.08;16.27;;;154.10;2227.20;;;;;;4953223;29;20030;-57
2022/02/03 17:25:53;;;;;;;16.05;12.07;;;154.00;2252.80;;;;;;4953268;29;20039;-56
2022/02/03 17:28:28;;;;;;;23.27;17.35;;;153.90;2252.80;;;;;;4952642;29;20051;-58
2022/02/03 17:31:04;;;;;;;16.35;11.40;;;154.10;2252.80;;;;;;4952964;29;20033;-59
2022/02/03 18:19:44;;;;;;;22.65;17.05;;;128.60;2252.80;;;;;;4952629;29;20049;-60
2022/02/03 18:46:14;;;;;;;36.20;20.90;;;128.10;2252.80;;;;;;4952180;29;20068;-58
2022/02/03 18:51:28;;;;;;;18.63;9.73;;;128.20;2252.80;;;;;;4954054;29;20078;-57
2022/02/03 18:56:39;;;;;;;28.30;18.55;;;128.10;2252.80;;;;;;4953143;29;20107;-59
2022/02/03 19:24:14;;;;;;;31.50;21.63;;;102.60;2227.20;;;;;;4909903;29;20043;-63
2022/02/03 20:06:46;;;;;;;47.15;30.73;;;102.60;2227.20;;;;;;4947830;29;20062;-63
2022/02/03 20:11:49;;;;;;;130.38;71.43;;;102.60;2227.20;;;;;;4946689;29;20075;-63
2022/02/03 20:14:15;;;;;;;125.57;65.75;;;102.60;2227.20;;;;;;4947902;29;20513;-61
2022/02/03 20:16:43;;;;;;;77.28;43.90;;;102.70;2227.20;;;;;;4947529;29;20038;-63
2022/02/03 20:19:09;;;;;;;38.47;25.60;;;102.70;2227.20;;;;;;4948601;29;20483;-58
2022/02/03 20:21:37;;;;;;;45.45;27.80;;;102.50;2227.20;;;;;;4948646;29;20023;-63
2022/02/03 20:24:05;;;;;;;65.00;41.65;;;102.40;2227.20;;;;;;4948472;29;20020;-62
2022/02/03 20:26:33;;;;;;;53.47;36.00;;;102.50;2227.20;;;;;;4948733;29;20530;-60
2022/02/03 20:28:59;;;;;;;40.38;26.80;;;102.50;2227.20;;;;;;4944164;29;20034;-58
2022/02/03 20:31:25;;;;;;;48.03;32.83;;;102.50;2227.20;;;;;;4949418;29;20027;-63
2022/02/03 20:33:51;;;;;;;30.17;19.33;;;102.50;2227.20;;;;;;4949274;29;20092;-62
2022/02/03 20:36:17;;;;;;;29.95;16.85;;;102.50;2227.20;;;;;;4951968;28;20059;-62
2022/02/03 20:38:43;;;;;;;19.75;13.40;;;102.40;2227.20;;;;;;4953615;29;20042;-65
2022/02/03 20:41:09;;;;;;;20.65;11.82;;;77.60;2227.20;;;;;;4954035;29;20039;-62
2022/02/03 20:43:34;;;;;;;12.55;9.55;;;77.70;2227.20;;;;;;4954102;29;20031;-63
2022/02/03 20:46:00;;;;;;;19.20;10.32;;;77.70;2227.20;;;;;;4954086;29;20590;-66
2022/02/03 20:48:29;;;;;;;15.40;9.60;;;77.50;2227.20;;;;;;4954195;29;20038;-65
2022/02/03 20:50:56;;;;;;;31.30;19.23;;;77.60;2227.20;;;;;;4953870;29;20031;-64
2022/02/03 20:53:22;;;;;;;56.85;32.95;;;77.70;2227.20;;;;;;4953749;29;20024;-65
2022/02/03 20:55:48;;;;;;;48.03;30.15;;;77.50;2227.20;;;;;;4953924;29;20046;-63
2022/02/03 20:58:18;;;;;;;40.03;25.15;;;77.60;2227.20;;;;;;4952743;29;20509;-63
2022/02/03 21:03:23;;;;;;;98.72;54.75;;;77.60;2227.20;;;;;;4947861;29;20390;-64
2022/02/03 21:05:49;;;;;;;73.68;43.08;;;77.60;2227.20;;;;;;4952968;29;20039;-58
2022/02/03 21:08:20;;;;;;;87.70;52.83;;;77.60;2227.20;;;;;;4953271;28;20042;-59
2022/02/03 21:10:46;;;;;;;101.95;54.97;;;77.60;2227.20;;;;;;4953715;29;20470;-62
2022/02/03 21:13:12;;;;;;;137.00;76.25;;;77.60;2227.20;;;;;;4953632;29;20111;-64
2022/02/03 21:15:39;;;;;;;128.35;68.32;;;77.60;2227.20;;;;;;4953468;29;20485;-59
2022/02/03 21:18:10;;;;;;;80.70;48.95;;;77.60;2227.20;;;;;;4947176;29;20019;-64
2022/02/03 21:20:38;;;;;;;67.18;37.58;;;77.60;2227.20;;;;;;4943833;29;20452;-55
2022/02/03 21:23:06;;;;;;;115.63;63.60;;;77.50;2227.20;;;;;;4952728;29;20031;-55
2022/02/03 21:28:05;;;;;;;71.70;39.10;;;77.50;2227.20;;;;;;4953390;29;20774;-54
2022/02/03 21:30:31;;;;;;;63.10;33.55;;;77.50;2227.20;;;;;;4952743;29;20482;-54
2022/02/03 21:32:57;;;;;;;122.95;61.35;;;77.60;2227.20;;;;;;4953339;29;20032;-55
2022/02/03 21:35:23;;;;;;;129.32;63.45;;;77.70;2227.20;;;;;;4952704;29;20049;-55
2022/02/03 21:37:50;;;;;;;87.10;41.05;;;77.70;2227.20;;;;;;4953161;29;20035;-55
2022/02/03 21:40:17;;;;;;;50.70;27.83;;;77.70;2227.20;;;;;;4936186;29;20058;-54
2022/02/03 21:42:43;;;;;;;142.05;65.30;;;102.40;2227.20;;;;;;4952420;29;20037;-55
2022/02/03 21:45:10;;;;;;;91.75;41.42;;;77.70;2227.20;;;;;;4953335;29;20517;-56
2022/02/03 21:47:36;;;;;;;80.72;38.65;;;102.40;2227.20;;;;;;4951975;28;20487;-54
2022/02/03 21:50:04;;;;;;;60.03;31.67;;;102.50;2227.20;;;;;;4952898;29;20027;-55
2022/02/03 21:52:40;;;;;;;61.28;30.27;;;102.50;2227.20;;;;;;4952776;29;20035;-53
2022/02/03 21:55:08;;;;;;;131.63;60.83;;;102.50;2227.20;;;;;;4952699;29;20378;-55
2022/02/03 21:57:34;;;;;;;182.25;85.75;;;102.60;2227.20;;;;;;4952591;29;20035;-55
2022/02/03 22:00:00;;;;;;;131.98;61.65;;;102.60;2227.20;;;;;;4952683;29;20024;-55
2022/02/03 22:02:26;;;;;;;64.03;33.75;;;102.60;2227.20;;;;;;4952876;29;20034;-54
2022/02/03 22:04:53;;;;;;;63.75;38.03;;;102.50;2227.20;;;;;;4952322;29;20043;-57
2022/02/03 22:07:19;;;;;;;86.53;40.08;;;102.40;2227.20;;;;;;4952628;29;20134;-56
2022/02/03 22:09:45;;;;;;;64.18;33.80;;;102.50;2227.20;;;;;;4952387;29;20035;-53
2022/02/03 22:12:11;;;;;;;203.70;83.85;;;77.70;2227.20;;;;;;4952291;29;20030;-54
2022/02/03 22:14:37;;;;;;;101.65;43.35;;;77.70;2227.20;;;;;;4952651;29;20047;-57
2022/02/03 22:17:03;;;;;;;98.18;53.45;;;102.40;2227.20;;;;;;4952408;29;20039;-54
2022/02/03 22:19:30;;;;;;;83.50;39.30;;;77.70;2227.20;;;;;;4919080;29;20535;-54
2022/02/03 22:22:48;;;;;;;67.97;34.17;;;77.70;2227.20;;;;;;4951779;29;20031;-55
2022/02/03 22:25:09;;;;;;;42.83;23.75;;;77.60;2227.20;;;;;;4946675;29;20046;-55
2022/02/03 22:38:58;;;;;;;143.50;79.38;;;77.50;2227.20;;;;;;4911684;29;20140;-56
2022/02/03 22:44:11;;;;;;;164.85;99.30;;;77.50;2227.20;;;;;;4911649;29;20039;-56
2022/02/03 22:46:50;;;;;;;154.02;94.32;;;102.50;2227.20;;;;;;4913001;29;20105;-55
2022/02/03 22:49:16;;;;;;;121.80;70.97;;;77.60;2227.20;;;;;;4913520;29;20066;-55
2022/02/03 22:51:43;;;;;;;162.57;85.88;;;77.60;2227.20;;;;;;4910084;29;20479;-54
2022/02/03 22:54:10;;;;;;;190.93;101.40;;;77.70;2227.20;;;;;;4913335;29;20388;-55
2022/02/03 22:56:37;;;;;;;209.27;108.18;;;102.40;2227.20;;;;;;4909924;29;20107;-55
2022/02/03 23:01:33;;;;;;;220.88;120.00;;;102.40;2227.20;;;;;;4913063;29;20454;-55
2022/02/03 23:03:58;;;;;;;176.43;92.55;;;77.70;2227.20;;;;;;4933863;29;20113;-55
2022/02/03 23:06:24;;;;;;;73.88;42.15;;;77.70;2227.20;;;;;;4952540;29;20031;-55
2022/02/03 23:12:08;;;;;;;100.60;50.10;;;77.70;2227.20;;;;;;4952815;29;20027;-54
2022/02/03 23:17:05;;;;;;;56.97;28.50;;;77.60;2227.20;;;;;;4952783;29;20071;-55
2022/02/03 23:22:25;;;;;;;172.25;86.10;;;77.70;2227.20;;;;;;4904257;29;20056;-55
2022/02/03 23:24:53;;;;;;;177.00;90.18;;;77.70;2227.20;;;;;;4901394;29;20614;-55
2022/02/03 23:29:55;;;;;;;184.13;99.47;;;77.60;2227.20;;;;;;4906597;29;20028;-54
2022/02/03 23:32:21;;;;;;;101.13;54.10;;;77.60;2227.20;;;;;;4911115;29;20040;-56
2022/02/03 23:34:56;;;;;;;121.90;69.43;;;77.70;2227.20;;;;;;4910332;29;20099;-56
2022/02/03 23:37:22;;;;;;;166.65;95.00;;;77.70;2227.20;;;;;;4912224;29;20040;-55
2022/02/03 23:44:54;;;;;;;140.60;78.30;;;77.70;2227.20;;;;;;4912220;29;20029;-55
